sensor_id;sensor_type;location;lat;lon;timestamp;pressure;altitude;pressure_sealevel;temperature
69857;BMP280;57147;53.582;10.112;2023-04-03T00:00:10;103122.38;;;-1.43
69857;BMP280;57147;53.582;10.112;2023-04-03T00:05:11;103134.44;;;-1.42
69857;BMP280;57147;53.582;10.112;2023-04-03T00:10:12;103133.63;;;-1.43
69857;BMP280;57147;53.582;10.112;2023-04-03T00:15:15;103128.19;;;-1.49
69857;BMP280;57147;53.582;10.112;2023-04-03T00:20:15;103128.44;;;-1.53
69857;BMP280;57147;53.582;10.112;2023-04-03T00:25:16;103126.69;;;-1.62
69857;BMP280;57147;53.582;10.112;2023-04-03T00:30:21;103141.34;;;-1.61
69857;BMP280;57147;53.582;10.112;2023-04-03T00:35:23;103142.31;;;-1.62
69857;BMP280;57147;53.582;10.112;2023-04-03T00:40:25;103143.28;;;-1.63
69857;BMP280;57147;53.582;10.112;2023-04-03T00:45:32;103143.28;;;-1.63
69857;BMP280;57147;53.582;10.112;2023-04-03T00:50:35;103140.56;;;-1.71
69857;BMP280;57147;53.582;10.112;2023-04-03T00:55:38;103144.16;;;-1.72
69857;BMP280;57147;53.582;10.112;2023-04-03T01:00:43;103148.69;;;-1.74
69857;BMP280;57147;53.582;10.112;2023-04-03T01:05:47;103155.41;;;-1.81
69857;BMP280;57147;53.582;10.112;2023-04-03T01:10:47;103154.59;;;-1.81
69857;BMP280;57147;53.582;10.112;2023-04-03T01:15:50;103143.09;;;-1.89
69857;BMP280;57147;53.582;10.112;2023-04-03T01:26:24;103153.25;;;-1.95
69857;BMP280;57147;53.582;10.112;2023-04-03T01:31:30;103152.03;;;-2.01
69857;BMP280;57147;53.582;10.112;2023-04-03T01:36:34;103152.78;;;-2.08
69857;BMP280;57147;53.582;10.112;2023-04-03T01:41:35;103146.19;;;-2.12
69857;BMP280;57147;53.582;10.112;2023-04-03T01:46:35;103145.81;;;-2.18
69857;BMP280;57147;53.582;10.112;2023-04-03T01:51:39;103145.13;;;-2.20
69857;BMP280;57147;53.582;10.112;2023-04-03T01:56:39;103155.53;;;-2.20
69857;BMP280;57147;53.582;10.112;2023-04-03T02:01:40;103164.84;;;-2.17
69857;BMP280;57147;53.582;10.112;2023-04-03T02:06:43;103179.38;;;-2.14
69857;BMP280;57147;53.582;10.112;2023-04-03T02:11:44;103183.19;;;-2.19
69857;BMP280;57147;53.582;10.112;2023-04-03T02:16:46;103171.72;;;-2.26
69857;BMP280;57147;53.582;10.112;2023-04-03T02:21:49;103178.69;;;-2.36
69857;BMP280;57147;53.582;10.112;2023-04-03T02:26:50;103180.19;;;-2.33
69857;BMP280;57147;53.582;10.112;2023-04-03T02:31:52;103184.84;;;-2.37
69857;BMP280;57147;53.582;10.112;2023-04-03T02:36:55;103188.97;;;-2.44
69857;BMP280;57147;53.582;10.112;2023-04-03T02:41:55;103197.47;;;-2.42
69857;BMP280;57147;53.582;10.112;2023-04-03T02:46:56;103200.06;;;-2.42
69857;BMP280;57147;53.582;10.112;2023-04-03T02:51:59;103211.16;;;-2.40
69857;BMP280;57147;53.582;10.112;2023-04-03T02:57:00;103199.09;;;-2.41
69857;BMP280;57147;53.582;10.112;2023-04-03T03:02:00;103201.56;;;-2.49
69857;BMP280;57147;53.582;10.112;2023-04-03T03:07:03;103203.72;;;-2.54
69857;BMP280;57147;53.582;10.112;2023-04-03T03:12:04;103196.88;;;-2.55
69857;BMP280;57147;53.582;10.112;2023-04-03T03:17:05;103195.22;;;-2.56
69857;BMP280;57147;53.582;10.112;2023-04-03T03:22:08;103205.41;;;-2.53
69857;BMP280;57147;53.582;10.112;2023-04-03T03:27:09;103195.50;;;-2.59
69857;BMP280;57147;53.582;10.112;2023-04-03T03:32:09;103209.47;;;-2.60
69857;BMP280;57147;53.582;10.112;2023-04-03T03:37:13;103206.44;;;-2.65
69857;BMP280;57147;53.582;10.112;2023-04-03T03:42:14;103203.97;;;-2.76
69857;BMP280;57147;53.582;10.112;2023-04-03T03:47:14;103207.78;;;-2.80
69857;BMP280;57147;53.582;10.112;2023-04-03T03:52:18;103220.09;;;-2.83
69857;BMP280;57147;53.582;10.112;2023-04-03T03:57:18;103225.84;;;-2.89
69857;BMP280;57147;53.582;10.112;2023-04-03T04:02:19;103237.31;;;-2.91
69857;BMP280;57147;53.582;10.112;2023-04-03T04:07:22;103207.22;;;-3.03
69857;BMP280;57147;53.582;10.112;2023-04-03T04:12:23;103235.16;;;-2.96
69857;BMP280;57147;53.582;10.112;2023-04-03T04:17:23;103203.00;;;-3.25
69857;BMP280;57147;53.582;10.112;2023-04-03T04:22:27;103210.13;;;-3.27
69857;BMP280;57147;53.582;10.112;2023-04-03T04:27:27;103248.47;;;-3.10
69857;BMP280;57147;53.582;10.112;2023-04-03T04:32:28;103244.69;;;-3.06
69857;BMP280;57147;53.582;10.112;2023-04-03T04:37:32;103251.97;;;-3.00
69857;BMP280;57147;53.582;10.112;2023-04-03T04:42:33;103263.88;;;-2.97
69857;BMP280;57147;53.582;10.112;2023-04-03T04:47:33;103255.59;;;-3.12
69857;BMP280;57147;53.582;10.112;2023-04-03T04:52:37;103277.75;;;-3.08
69857;BMP280;57147;53.582;10.112;2023-04-03T04:57:38;103273.66;;;-3.10
69857;BMP280;57147;53.582;10.112;2023-04-03T05:02:39;103280.88;;;-3.14
69857;BMP280;57147;53.582;10.112;2023-04-03T05:07:42;103293.94;;;-3.04
69857;BMP280;57147;53.582;10.112;2023-04-03T05:12:42;103281.31;;;-3.09
69857;BMP280;57147;53.582;10.112;2023-04-03T05:17:43;103265.16;;;-3.12
69857;BMP280;57147;53.582;10.112;2023-04-03T05:22:46;103296.44;;;-2.93
69857;BMP280;57147;53.582;10.112;2023-04-03T05:27:47;103296.72;;;-2.87
69857;BMP280;57147;53.582;10.112;2023-04-03T05:32:48;103302.53;;;-2.73
69857;BMP280;57147;53.582;10.112;2023-04-03T05:37:51;103313.25;;;-2.57
69857;BMP280;57147;53.582;10.112;2023-04-03T05:42:51;103305.38;;;-2.46
69857;BMP280;57147;53.582;10.112;2023-04-03T05:47:52;103304.84;;;-2.30
69857;BMP280;57147;53.582;10.112;2023-04-03T05:52:57;103300.19;;;-2.17
69857;BMP280;57147;53.582;10.112;2023-04-03T05:57:58;103288.41;;;-2.02
69857;BMP280;57147;53.582;10.112;2023-04-03T06:02:58;103282.09;;;-1.90
69857;BMP280;57147;53.582;10.112;2023-04-03T06:08:01;103268.91;;;-1.69
69857;BMP280;57147;53.582;10.112;2023-04-03T06:13:02;103267.78;;;-1.57
69857;BMP280;57147;53.582;10.112;2023-04-03T06:18:03;103267.75;;;-1.37
69857;BMP280;57147;53.582;10.112;2023-04-03T06:23:06;103260.53;;;-1.16
69857;BMP280;57147;53.582;10.112;2023-04-03T06:28:08;103259.38;;;-1.04
69857;BMP280;57147;53.582;10.112;2023-04-03T06:33:08;103242.84;;;-0.95
69857;BMP280;57147;53.582;10.112;2023-04-03T06:38:12;103262.34;;;-0.71
69857;BMP280;57147;53.582;10.112;2023-04-03T06:43:12;103265.78;;;-0.53
69857;BMP280;57147;53.582;10.112;2023-04-03T06:48:13;103256.81;;;-0.33
69857;BMP280;57147;53.582;10.112;2023-04-03T06:53:16;103266.75;;;-0.01
69857;BMP280;57147;53.582;10.112;2023-04-03T06:58:17;103258.00;;;0.08
69857;BMP280;57147;53.582;10.112;2023-04-03T07:03:17;103265.88;;;0.42
69857;BMP280;57147;53.582;10.112;2023-04-03T07:08:20;103264.47;;;0.56
69857;BMP280;57147;53.582;10.112;2023-04-03T07:13:21;103282.72;;;0.82
69857;BMP280;57147;53.582;10.112;2023-04-03T07:18:23;103276.25;;;0.94
69857;BMP280;57147;53.582;10.112;2023-04-03T07:23:26;103292.81;;;1.11
69857;BMP280;57147;53.582;10.112;2023-04-03T07:28:27;103296.28;;;1.20
69857;BMP280;57147;53.582;10.112;2023-04-03T07:33:28;103296.97;;;1.30
69857;BMP280;57147;53.582;10.112;2023-04-03T07:38:31;103290.72;;;1.23
69857;BMP280;57147;53.582;10.112;2023-04-03T07:43:32;103313.66;;;1.53
69857;BMP280;57147;53.582;10.112;2023-04-03T07:48:32;103328.44;;;1.70
69857;BMP280;57147;53.582;10.112;2023-04-03T07:53:36;103327.13;;;1.82
69857;BMP280;57147;53.582;10.112;2023-04-03T07:58:36;103344.16;;;2.11
69857;BMP280;57147;53.582;10.112;2023-04-03T08:03:37;103347.06;;;2.32
69857;BMP280;57147;53.582;10.112;2023-04-03T08:08:44;103351.97;;;2.35
69857;BMP280;57147;53.582;10.112;2023-04-03T08:13:44;103351.47;;;2.48
69857;BMP280;57147;53.582;10.112;2023-04-03T08:18:45;103366.63;;;2.77
69857;BMP280;57147;53.582;10.112;2023-04-03T08:23:49;103360.53;;;2.84
69857;BMP280;57147;53.582;10.112;2023-04-03T08:28:50;103364.94;;;2.92
69857;BMP280;57147;53.582;10.112;2023-04-03T08:33:51;103364.41;;;3.05
69857;BMP280;57147;53.582;10.112;2023-04-03T08:38:56;103361.50;;;3.22
69857;BMP280;57147;53.582;10.112;2023-04-03T08:44:02;103362.53;;;3.44
69857;BMP280;57147;53.582;10.112;2023-04-03T08:49:10;103368.78;;;3.66
69857;BMP280;57147;53.582;10.112;2023-04-03T08:54:25;103374.03;;;3.89
69857;BMP280;57147;53.582;10.112;2023-04-03T08:59:30;103373.06;;;4.05
69857;BMP280;57147;53.582;10.112;2023-04-03T09:04:34;103357.47;;;4.18
69857;BMP280;57147;53.582;10.112;2023-04-03T09:09:39;103374.09;;;4.33
69857;BMP280;57147;53.582;10.112;2023-04-03T09:14:48;103370.03;;;4.60
69857;BMP280;57147;53.582;10.112;2023-04-03T09:19:56;103372.38;;;4.70
69857;BMP280;57147;53.582;10.112;2023-04-03T09:25:06;103360.63;;;4.87
69857;BMP280;57147;53.582;10.112;2023-04-03T09:30:13;103369.22;;;5.10
69857;BMP280;57147;53.582;10.112;2023-04-03T09:35:23;103345.13;;;5.13
69857;BMP280;57147;53.582;10.112;2023-04-03T09:40:35;103353.56;;;5.23
69857;BMP280;57147;53.582;10.112;2023-04-03T09:45:35;103363.28;;;5.65
69857;BMP280;57147;53.582;10.112;2023-04-03T09:50:36;103350.97;;;5.79
69857;BMP280;57147;53.582;10.112;2023-04-03T09:55:44;103349.28;;;5.65
69857;BMP280;57147;53.582;10.112;2023-04-03T10:00:54;103335.41;;;5.84
69857;BMP280;57147;53.582;10.112;2023-04-03T10:05:56;103346.16;;;6.10
69857;BMP280;57147;53.582;10.112;2023-04-03T10:11:13;103304.69;;;5.98
69857;BMP280;57147;53.582;10.112;2023-04-03T10:16:14;103331.06;;;6.32
69857;BMP280;57147;53.582;10.112;2023-04-03T10:21:33;103341.47;;;6.47
69857;BMP280;57147;53.582;10.112;2023-04-03T10:26:43;103328.16;;;6.68
69857;BMP280;57147;53.582;10.112;2023-04-03T10:31:50;103325.75;;;6.93
69857;BMP280;57147;53.582;10.112;2023-04-03T10:36:59;103326.34;;;6.28
69857;BMP280;57147;53.582;10.112;2023-04-03T10:42:10;103332.53;;;6.48
69857;BMP280;57147;53.582;10.112;2023-04-03T10:47:18;103313.00;;;7.10
69857;BMP280;57147;53.582;10.112;2023-04-03T10:52:23;103322.09;;;7.01
69857;BMP280;57147;53.582;10.112;2023-04-03T10:57:28;103311.34;;;6.89
69857;BMP280;57147;53.582;10.112;2023-04-03T11:02:32;103299.31;;;6.80
69857;BMP280;57147;53.582;10.112;2023-04-03T11:07:37;103295.22;;;7.83
69857;BMP280;57147;53.582;10.112;2023-04-03T11:12:43;103293.94;;;8.18
69857;BMP280;57147;53.582;10.112;2023-04-03T11:17:48;103281.19;;;8.33
69857;BMP280;57147;53.582;10.112;2023-04-03T11:22:53;103276.97;;;9.57
69857;BMP280;57147;53.582;10.112;2023-04-03T11:28:01;103269.16;;;10.69
69857;BMP280;57147;53.582;10.112;2023-04-03T11:33:19;103260.34;;;11.39
69857;BMP280;57147;53.582;10.112;2023-04-03T11:38:27;103257.25;;;10.84
69857;BMP280;57147;53.582;10.112;2023-04-03T11:43:32;103254.41;;;10.14
69857;BMP280;57147;53.582;10.112;2023-04-03T11:48:48;103260.63;;;10.08
69857;BMP280;57147;53.582;10.112;2023-04-03T11:53:49;103256.97;;;9.18
69857;BMP280;57147;53.582;10.112;2023-04-03T12:04:28;103254.38;;;8.23
69857;BMP280;57147;53.582;10.112;2023-04-03T12:09:33;103256.91;;;8.43
69857;BMP280;57147;53.582;10.112;2023-04-03T12:14:34;103237.13;;;8.46
69857;BMP280;57147;53.582;10.112;2023-04-03T12:19:39;103244.28;;;8.07
69857;BMP280;57147;53.582;10.112;2023-04-03T12:24:41;103238.75;;;8.47
69857;BMP280;57147;53.582;10.112;2023-04-03T12:29:46;103229.09;;;9.08
69857;BMP280;57147;53.582;10.112;2023-04-03T12:35:08;103214.13;;;10.17
69857;BMP280;57147;53.582;10.112;2023-04-03T12:40:17;103227.84;;;10.02
69857;BMP280;57147;53.582;10.112;2023-04-03T12:45:22;103232.84;;;9.01
69857;BMP280;57147;53.582;10.112;2023-04-03T12:50:29;103217.81;;;8.70
69857;BMP280;57147;53.582;10.112;2023-04-03T12:55:31;103220.00;;;9.41
69857;BMP280;57147;53.582;10.112;2023-04-03T13:00:33;103197.44;;;9.86
69857;BMP280;57147;53.582;10.112;2023-04-03T13:05:37;103208.47;;;10.02
69857;BMP280;57147;53.582;10.112;2023-04-03T13:10:50;103196.97;;;10.31
69857;BMP280;57147;53.582;10.112;2023-04-03T13:15:52;103183.97;;;10.11
69857;BMP280;57147;53.582;10.112;2023-04-03T13:21:00;103202.53;;;10.99
69857;BMP280;57147;53.582;10.112;2023-04-03T13:26:03;103202.53;;;11.63
69857;BMP280;57147;53.582;10.112;2023-04-03T13:31:07;103197.38;;;10.81
69857;BMP280;57147;53.582;10.112;2023-04-03T13:36:17;103194.69;;;10.93
69857;BMP280;57147;53.582;10.112;2023-04-03T13:41:25;103192.78;;;11.28
69857;BMP280;57147;53.582;10.112;2023-04-03T13:46:28;103185.06;;;11.15
69857;BMP280;57147;53.582;10.112;2023-04-03T13:51:31;103186.03;;;10.86
69857;BMP280;57147;53.582;10.112;2023-04-03T13:56:34;103178.19;;;10.91
69857;BMP280;57147;53.582;10.112;2023-04-03T14:01:43;103169.03;;;10.98
69857;BMP280;57147;53.582;10.112;2023-04-03T14:06:47;103168.84;;;11.28
69857;BMP280;57147;53.582;10.112;2023-04-03T14:11:49;103176.41;;;11.60
69857;BMP280;57147;53.582;10.112;2023-04-03T14:16:53;103160.94;;;11.05
69857;BMP280;57147;53.582;10.112;2023-04-03T14:21:57;103165.59;;;11.38
69857;BMP280;57147;53.582;10.112;2023-04-03T14:26:58;103153.03;;;11.78
69857;BMP280;57147;53.582;10.112;2023-04-03T14:31:59;103164.41;;;11.90
69857;BMP280;57147;53.582;10.112;2023-04-03T14:37:04;103161.28;;;12.10
69857;BMP280;57147;53.582;10.112;2023-04-03T14:42:04;103155.00;;;12.16
69857;BMP280;57147;53.582;10.112;2023-04-03T14:47:07;103154.34;;;12.09
69857;BMP280;57147;53.582;10.112;2023-04-03T14:52:18;103146.75;;;12.01
69857;BMP280;57147;53.582;10.112;2023-04-03T14:57:21;103152.66;;;12.37
69857;BMP280;57147;53.582;10.112;2023-04-03T15:02:28;103148.69;;;12.22
69857;BMP280;57147;53.582;10.112;2023-04-03T15:07:33;103149.66;;;12.16
69857;BMP280;57147;53.582;10.112;2023-04-03T15:12:34;103150.59;;;12.60
69857;BMP280;57147;53.582;10.112;2023-04-03T15:17:36;103119.41;;;13.04
69857;BMP280;57147;53.582;10.112;2023-04-03T15:22:39;103147.63;;;13.49
69857;BMP280;57147;53.582;10.112;2023-04-03T15:27:40;103155.44;;;11.80
69857;BMP280;57147;53.582;10.112;2023-04-03T15:32:41;103142.38;;;10.58
69857;BMP280;57147;53.582;10.112;2023-04-03T15:37:45;103133.22;;;11.29
69857;BMP280;57147;53.582;10.112;2023-04-03T15:42:45;103133.44;;;12.01
69857;BMP280;57147;53.582;10.112;2023-04-03T15:47:46;103140.38;;;12.35
69857;BMP280;57147;53.582;10.112;2023-04-03T15:52:49;103125.09;;;12.48
69857;BMP280;57147;53.582;10.112;2023-04-03T15:57:51;103131.59;;;11.28
69857;BMP280;57147;53.582;10.112;2023-04-03T16:02:54;103117.84;;;10.33
69857;BMP280;57147;53.582;10.112;2023-04-03T16:07:57;103131.75;;;10.82
69857;BMP280;57147;53.582;10.112;2023-04-03T16:12:59;103127.59;;;11.26
69857;BMP280;57147;53.582;10.112;2023-04-03T16:18:00;103132.00;;;11.48
69857;BMP280;57147;53.582;10.112;2023-04-03T16:23:03;103131.47;;;11.35
69857;BMP280;57147;53.582;10.112;2023-04-03T16:28:04;103120.31;;;10.69
69857;BMP280;57147;53.582;10.112;2023-04-03T16:33:05;103128.81;;;10.13
69857;BMP280;57147;53.582;10.112;2023-04-03T16:38:08;103122.69;;;10.13
69857;BMP280;57147;53.582;10.112;2023-04-03T16:43:09;103118.19;;;9.42
69857;BMP280;57147;53.582;10.112;2023-04-03T16:48:10;103139.03;;;8.84
69857;BMP280;57147;53.582;10.112;2023-04-03T16:53:14;103143.16;;;7.92
69857;BMP280;57147;53.582;10.112;2023-04-03T16:58:15;103138.38;;;7.31
69857;BMP280;57147;53.582;10.112;2023-04-03T17:03:16;103128.25;;;6.89
69857;BMP280;57147;53.582;10.112;2023-04-03T17:08:19;103134.75;;;6.60
69857;BMP280;57147;53.582;10.112;2023-04-03T17:13:20;103109.16;;;6.21
69857;BMP280;57147;53.582;10.112;2023-04-03T17:18:20;103142.78;;;6.05
69857;BMP280;57147;53.582;10.112;2023-04-03T17:23:24;103142.28;;;5.82
69857;BMP280;57147;53.582;10.112;2023-04-03T17:28:25;103142.19;;;5.56
69857;BMP280;57147;53.582;10.112;2023-04-03T17:33:27;103132.66;;;5.20
69857;BMP280;57147;53.582;10.112;2023-04-03T17:38:30;103142.81;;;5.02
69857;BMP280;57147;53.582;10.112;2023-04-03T17:43:32;103151.28;;;4.70
69857;BMP280;57147;53.582;10.112;2023-04-03T17:48:33;103154.63;;;4.42
69857;BMP280;57147;53.582;10.112;2023-04-03T17:53:36;103128.28;;;4.00
69857;BMP280;57147;53.582;10.112;2023-04-03T17:58:37;103155.28;;;3.93
69857;BMP280;57147;53.582;10.112;2023-04-03T18:03:38;103156.66;;;3.75
69857;BMP280;57147;53.582;10.112;2023-04-03T18:08:43;103163.25;;;3.56
69857;BMP280;57147;53.582;10.112;2023-04-03T18:13:45;103146.28;;;3.29
69857;BMP280;57147;53.582;10.112;2023-04-03T18:18:46;103166.34;;;3.22
69857;BMP280;57147;53.582;10.112;2023-04-03T18:23:52;103158.16;;;3.02
69857;BMP280;57147;53.582;10.112;2023-04-03T18:28:57;103162.56;;;2.87
69857;BMP280;57147;53.582;10.112;2023-04-03T18:33:58;103167.84;;;2.79
69857;BMP280;57147;53.582;10.112;2023-04-03T18:39:02;103170.88;;;2.68
69857;BMP280;57147;53.582;10.112;2023-04-03T18:44:06;103173.59;;;2.51
69857;BMP280;57147;53.582;10.112;2023-04-03T18:49:08;103162.47;;;2.49
69857;BMP280;57147;53.582;10.112;2023-04-03T18:54:11;103174.94;;;2.39
69857;BMP280;57147;53.582;10.112;2023-04-03T18:59:12;103167.84;;;2.25
69857;BMP280;57147;53.582;10.112;2023-04-03T19:04:13;103175.41;;;2.20
69857;BMP280;57147;53.582;10.112;2023-04-03T19:09:16;103162.97;;;2.06
69857;BMP280;57147;53.582;10.112;2023-04-03T19:14:17;103177.09;;;1.97
69857;BMP280;57147;53.582;10.112;2023-04-03T19:19:18;103175.31;;;1.89
69857;BMP280;57147;53.582;10.112;2023-04-03T19:24:21;103172.53;;;1.82
69857;BMP280;57147;53.582;10.112;2023-04-03T19:29:21;103169.59;;;1.77
69857;BMP280;57147;53.582;10.112;2023-04-03T19:34:22;103161.44;;;1.64
69857;BMP280;57147;53.582;10.112;2023-04-03T19:39:25;103146.88;;;1.54
69857;BMP280;57147;53.582;10.112;2023-04-03T19:44:26;103156.72;;;1.43
69857;BMP280;57147;53.582;10.112;2023-04-03T19:49:27;103132.69;;;1.32
69857;BMP280;57147;53.582;10.112;2023-04-03T19:54:30;103132.69;;;1.24
69857;BMP280;57147;53.582;10.112;2023-04-03T19:59:31;103125.00;;;1.14
69857;BMP280;57147;53.582;10.112;2023-04-03T20:04:31;103119.13;;;1.04
69857;BMP280;57147;53.582;10.112;2023-04-03T20:09:35;103105.53;;;0.92
69857;BMP280;57147;53.582;10.112;2023-04-03T20:14:35;103122.53;;;0.96
69857;BMP280;57147;53.582;10.112;2023-04-03T20:19:36;103101.25;;;0.83
69857;BMP280;57147;53.582;10.112;2023-04-03T20:24:39;103120.22;;;0.85
69857;BMP280;57147;53.582;10.112;2023-04-03T20:29:40;103112.38;;;0.77
69857;BMP280;57147;53.582;10.112;2023-04-03T20:34:41;103113.03;;;0.79
69857;BMP280;57147;53.582;10.112;2023-04-03T20:39:44;103097.00;;;0.74
69857;BMP280;57147;53.582;10.112;2023-04-03T20:44:44;103109.56;;;0.62
69857;BMP280;57147;53.582;10.112;2023-04-03T20:49:45;103110.06;;;0.50
69857;BMP280;57147;53.582;10.112;2023-04-03T20:54:48;103107.06;;;0.36
69857;BMP280;57147;53.582;10.112;2023-04-03T20:59:50;103103.25;;;0.23
69857;BMP280;57147;53.582;10.112;2023-04-03T21:04:52;103094.53;;;0.14
69857;BMP280;57147;53.582;10.112;2023-04-03T21:20:51;103086.31;;;-0.07
69857;BMP280;57147;53.582;10.112;2023-04-03T21:25:52;103093.78;;;-0.12
69857;BMP280;57147;53.582;10.112;2023-04-03T21:30:52;103090.91;;;-0.27
69857;BMP280;57147;53.582;10.112;2023-04-03T21:35:55;103078.97;;;-0.38
69857;BMP280;57147;53.582;10.112;2023-04-03T21:40:56;103078.16;;;-0.38
69857;BMP280;57147;53.582;10.112;2023-04-03T21:45:57;103075.47;;;-0.46
69857;BMP280;57147;53.582;10.112;2023-04-03T21:51:04;103074.22;;;-0.60
69857;BMP280;57147;53.582;10.112;2023-04-03T21:56:05;103070.34;;;-0.56
69857;BMP280;57147;53.582;10.112;2023-04-03T22:01:10;103062.16;;;-0.61
69857;BMP280;57147;53.582;10.112;2023-04-03T22:06:15;103034.91;;;-0.84
69857;BMP280;57147;53.582;10.112;2023-04-03T22:11:16;103058.44;;;-0.76
69857;BMP280;57147;53.582;10.112;2023-04-03T22:16:17;103044.13;;;-0.98
69857;BMP280;57147;53.582;10.112;2023-04-03T22:21:20;103047.19;;;-1.03
69857;BMP280;57147;53.582;10.112;2023-04-03T22:26:21;103040.69;;;-1.16
69857;BMP280;57147;53.582;10.112;2023-04-03T22:31:22;103049.00;;;-1.21
69857;BMP280;57147;53.582;10.112;2023-04-03T22:36:28;103039.91;;;-1.35
69857;BMP280;57147;53.582;10.112;2023-04-03T22:41:29;103045.63;;;-1.31
69857;BMP280;57147;53.582;10.112;2023-04-03T22:46:29;103048.84;;;-1.37
69857;BMP280;57147;53.582;10.112;2023-04-03T22:51:32;103043.75;;;-1.39
69857;BMP280;57147;53.582;10.112;2023-04-03T22:56:33;103038.31;;;-1.45
69857;BMP280;57147;53.582;10.112;2023-04-03T23:01:38;103051.88;;;-1.42
69857;BMP280;57147;53.582;10.112;2023-04-03T23:06:43;103050.09;;;-1.41
69857;BMP280;57147;53.582;10.112;2023-04-03T23:11:43;103028.66;;;-1.63
69857;BMP280;57147;53.582;10.112;2023-04-03T23:16:44;103045.63;;;-1.59
69857;BMP280;57147;53.582;10.112;2023-04-03T23:21:48;103050.09;;;-1.69
69857;BMP280;57147;53.582;10.112;2023-04-03T23:26:52;103043.81;;;-1.76
69857;BMP280;57147;53.582;10.112;2023-04-03T23:31:52;103052.59;;;-1.77
69857;BMP280;57147;53.582;10.112;2023-04-03T23:36:57;103051.53;;;-1.84
69857;BMP280;57147;53.582;10.112;2023-04-03T23:41:58;103037.72;;;-1.94
69857;BMP280;57147;53.582;10.112;2023-04-03T23:46:59;103052.38;;;-1.93
69857;BMP280;57147;53.582;10.112;2023-04-03T23:52:02;103044.19;;;-1.98
69857;BMP280;57147;53.582;10.112;2023-04-03T23:57:03;103043.50;;;-2.00
